sensor_id;sensor_type;location;lat;lon;timestamp;P1;durP1;ratioP1;P2;durP2;ratioP2
32138;SDS011;18644;48.700;9.210;2023-02-01T00:02:26;3.10;;;2.28;;
32138;SDS011;18644;48.700;9.210;2023-02-01T00:04:53;2.95;;;2.20;;
32138;SDS011;18644;48.700;9.210;2023-02-01T00:07:20;3.22;;;2.22;;
32138;SDS011;18644;48.700;9.210;2023-02-01T00:09:47;3.33;;;2.70;;
32138;SDS011;18644;48.700;9.210;2023-02-01T00:12:15;4.88;;;2.70;;
32138;SDS011;18644;48.700;9.210;2023-02-01T00:14:42;3.30;;;2.70;;
32138;SDS011;18644;48.700;9.210;2023-02-01T00:17:09;2.20;;;1.90;;
32138;SDS011;18644;48.700;9.210;2023-02-01T00:19:36;4.50;;;2.22;;
32138;SDS011;18644;48.700;9.210;2023-02-01T00:22:03;2.70;;;2.17;;
32138;SDS011;18644;48.700;9.210;2023-02-01T00:24:29;5.43;;;2.65;;
32138;SDS011;18644;48.700;9.210;2023-02-01T00:26:56;2.20;;;1.80;;
32138;SDS011;18644;48.700;9.210;2023-02-01T00:29:24;3.42;;;2.20;;
32138;SDS011;18644;48.700;9.210;2023-02-01T00:31:51;2.88;;;2.33;;
32138;SDS011;18644;48.700;9.210;2023-02-01T00:34:18;2.70;;;2.25;;
32138;SDS011;18644;48.700;9.210;2023-02-01T00:36:46;2.65;;;2.00;;
32138;SDS011;18644;48.700;9.210;2023-02-01T00:39:13;2.38;;;1.98;;
32138;SDS011;18644;48.700;9.210;2023-02-01T00:41:41;5.18;;;2.17;;
32138;SDS011;18644;48.700;9.210;2023-02-01T00:44:08;2.83;;;1.88;;
32138;SDS011;18644;48.700;9.210;2023-02-01T00:46:36;2.38;;;1.80;;
32138;SDS011;18644;48.700;9.210;2023-02-01T00:49:03;2.55;;;2.13;;
32138;SDS011;18644;48.700;9.210;2023-02-01T00:51:32;2.35;;;1.75;;
32138;SDS011;18644;48.700;9.210;2023-02-01T00:53:59;2.50;;;1.73;;
32138;SDS011;18644;48.700;9.210;2023-02-01T00:56:26;2.85;;;1.83;;
32138;SDS011;18644;48.700;9.210;2023-02-01T00:58:53;4.32;;;2.33;;
32138;SDS011;18644;48.700;9.210;2023-02-01T01:01:21;2.47;;;1.70;;
32138;SDS011;18644;48.700;9.210;2023-02-01T01:03:51;2.33;;;1.90;;
32138;SDS011;18644;48.700;9.210;2023-02-01T01:06:21;2.58;;;1.58;;
32138;SDS011;18644;48.700;9.210;2023-02-01T01:08:50;2.00;;;1.55;;
32138;SDS011;18644;48.700;9.210;2023-02-01T01:11:20;2.05;;;1.67;;
32138;SDS011;18644;48.700;9.210;2023-02-01T01:13:50;2.20;;;1.58;;
32138;SDS011;18644;48.700;9.210;2023-02-01T01:16:18;1.60;;;1.50;;
32138;SDS011;18644;48.700;9.210;2023-02-01T01:18:47;2.13;;;1.70;;
32138;SDS011;18644;48.700;9.210;2023-02-01T01:21:15;1.75;;;1.55;;
32138;SDS011;18644;48.700;9.210;2023-02-01T01:23:43;3.13;;;1.60;;
32138;SDS011;18644;48.700;9.210;2023-02-01T01:26:13;2.55;;;1.90;;
32138;SDS011;18644;48.700;9.210;2023-02-01T01:28:42;2.72;;;1.55;;
32138;SDS011;18644;48.700;9.210;2023-02-01T01:31:10;2.63;;;1.42;;
32138;SDS011;18644;48.700;9.210;2023-02-01T01:33:38;1.73;;;1.52;;
32138;SDS011;18644;48.700;9.210;2023-02-01T01:36:05;2.97;;;1.90;;
32138;SDS011;18644;48.700;9.210;2023-02-01T01:38:36;2.10;;;1.90;;
32138;SDS011;18644;48.700;9.210;2023-02-01T01:41:03;2.25;;;1.70;;
32138;SDS011;18644;48.700;9.210;2023-02-01T01:43:44;1.85;;;1.50;;
32138;SDS011;18644;48.700;9.210;2023-02-01T01:46:15;1.73;;;1.23;;
32138;SDS011;18644;48.700;9.210;2023-02-01T01:48:44;1.88;;;1.67;;
32138;SDS011;18644;48.700;9.210;2023-02-01T01:51:13;2.17;;;1.90;;
32138;SDS011;18644;48.700;9.210;2023-02-01T01:53:46;2.08;;;1.75;;
32138;SDS011;18644;48.700;9.210;2023-02-01T01:56:18;2.35;;;1.75;;
32138;SDS011;18644;48.700;9.210;2023-02-01T01:58:45;1.67;;;1.48;;
32138;SDS011;18644;48.700;9.210;2023-02-01T02:01:12;2.20;;;1.80;;
32138;SDS011;18644;48.700;9.210;2023-02-01T02:03:40;2.00;;;1.50;;
32138;SDS011;18644;48.700;9.210;2023-02-01T02:06:11;1.67;;;1.55;;
32138;SDS011;18644;48.700;9.210;2023-02-01T02:08:45;1.73;;;1.25;;
32138;SDS011;18644;48.700;9.210;2023-02-01T02:11:12;1.70;;;1.50;;
32138;SDS011;18644;48.700;9.210;2023-02-01T02:13:44;2.55;;;1.38;;
32138;SDS011;18644;48.700;9.210;2023-02-01T02:16:18;1.73;;;1.52;;
32138;SDS011;18644;48.700;9.210;2023-02-01T02:19:03;1.92;;;1.45;;
32138;SDS011;18644;48.700;9.210;2023-02-01T02:22:16;2.08;;;1.40;;
32138;SDS011;18644;48.700;9.210;2023-02-01T02:25:23;1.80;;;1.58;;
32138;SDS011;18644;48.700;9.210;2023-02-01T02:28:26;1.35;;;1.25;;
32138;SDS011;18644;48.700;9.210;2023-02-01T02:31:23;1.70;;;1.33;;
32138;SDS011;18644;48.700;9.210;2023-02-01T02:34:10;1.15;;;1.05;;
32138;SDS011;18644;48.700;9.210;2023-02-01T02:36:47;3.33;;;1.60;;
32138;SDS011;18644;48.700;9.210;2023-02-01T02:39:27;1.55;;;1.45;;
32138;SDS011;18644;48.700;9.210;2023-02-01T02:42:06;1.77;;;1.55;;
32138;SDS011;18644;48.700;9.210;2023-02-01T02:44:58;1.73;;;1.27;;
32138;SDS011;18644;48.700;9.210;2023-02-01T02:47:50;1.80;;;1.50;;
32138;SDS011;18644;48.700;9.210;2023-02-01T02:50:25;1.85;;;1.38;;
32138;SDS011;18644;48.700;9.210;2023-02-01T02:53:14;1.50;;;1.40;;
32138;SDS011;18644;48.700;9.210;2023-02-01T02:56:03;1.95;;;1.60;;
32138;SDS011;18644;48.700;9.210;2023-02-01T02:58:50;3.13;;;1.45;;
32138;SDS011;18644;48.700;9.210;2023-02-01T03:01:36;1.88;;;1.40;;
32138;SDS011;18644;48.700;9.210;2023-02-01T03:04:22;1.83;;;1.63;;
32138;SDS011;18644;48.700;9.210;2023-02-01T03:06:51;1.70;;;1.42;;
32138;SDS011;18644;48.700;9.210;2023-02-01T03:09:21;1.70;;;1.50;;
32138;SDS011;18644;48.700;9.210;2023-02-01T03:11:55;3.03;;;1.70;;
32138;SDS011;18644;48.700;9.210;2023-02-01T03:14:45;1.60;;;1.50;;
32138;SDS011;18644;48.700;9.210;2023-02-01T03:17:17;1.83;;;1.65;;
32138;SDS011;18644;48.700;9.210;2023-02-01T03:19:48;1.55;;;1.33;;
32138;SDS011;18644;48.700;9.210;2023-02-01T03:22:20;2.60;;;1.90;;
32138;SDS011;18644;48.700;9.210;2023-02-01T03:24:50;1.75;;;1.40;;
32138;SDS011;18644;48.700;9.210;2023-02-01T03:27:22;1.83;;;1.65;;
32138;SDS011;18644;48.700;9.210;2023-02-01T03:29:56;1.85;;;1.58;;
32138;SDS011;18644;48.700;9.210;2023-02-01T03:32:31;2.10;;;1.70;;
32138;SDS011;18644;48.700;9.210;2023-02-01T03:35:19;2.03;;;1.50;;
32138;SDS011;18644;48.700;9.210;2023-02-01T03:37:53;1.60;;;1.45;;
32138;SDS011;18644;48.700;9.210;2023-02-01T03:40:28;2.38;;;1.85;;
32138;SDS011;18644;48.700;9.210;2023-02-01T03:42:59;3.08;;;1.55;;
32138;SDS011;18644;48.700;9.210;2023-02-01T03:45:31;2.17;;;1.80;;
32138;SDS011;18644;48.700;9.210;2023-02-01T03:48:04;2.65;;;1.85;;
32138;SDS011;18644;48.700;9.210;2023-02-01T03:50:32;1.73;;;1.60;;
32138;SDS011;18644;48.700;9.210;2023-02-01T03:53:04;2.58;;;1.70;;
32138;SDS011;18644;48.700;9.210;2023-02-01T03:58:01;1.33;;;1.20;;
32138;SDS011;18644;48.700;9.210;2023-02-01T04:00:34;1.40;;;1.30;;
32138;SDS011;18644;48.700;9.210;2023-02-01T04:03:01;1.95;;;1.55;;
32138;SDS011;18644;48.700;9.210;2023-02-01T04:05:33;2.00;;;1.80;;
32138;SDS011;18644;48.700;9.210;2023-02-01T04:08:00;2.10;;;1.90;;
32138;SDS011;18644;48.700;9.210;2023-02-01T04:10:29;1.85;;;1.63;;
32138;SDS011;18644;48.700;9.210;2023-02-01T04:12:55;3.15;;;2.00;;
32138;SDS011;18644;48.700;9.210;2023-02-01T04:15:22;1.77;;;1.67;;
32138;SDS011;18644;48.700;9.210;2023-02-01T04:17:50;1.88;;;1.65;;
32138;SDS011;18644;48.700;9.210;2023-02-01T04:20:17;2.47;;;1.70;;
32138;SDS011;18644;48.700;9.210;2023-02-01T04:22:44;1.73;;;1.48;;
32138;SDS011;18644;48.700;9.210;2023-02-01T04:25:11;1.50;;;1.40;;
32138;SDS011;18644;48.700;9.210;2023-02-01T04:27:39;2.25;;;1.50;;
32138;SDS011;18644;48.700;9.210;2023-02-01T04:30:06;1.95;;;1.63;;
32138;SDS011;18644;48.700;9.210;2023-02-01T04:32:35;1.73;;;1.60;;
32138;SDS011;18644;48.700;9.210;2023-02-01T04:35:02;3.97;;;1.90;;
32138;SDS011;18644;48.700;9.210;2023-02-01T04:37:30;3.05;;;2.03;;
32138;SDS011;18644;48.700;9.210;2023-02-01T04:39:56;1.52;;;1.42;;
32138;SDS011;18644;48.700;9.210;2023-02-01T04:42:23;1.77;;;1.60;;
32138;SDS011;18644;48.700;9.210;2023-02-01T04:44:52;1.42;;;1.30;;
32138;SDS011;18644;48.700;9.210;2023-02-01T04:47:19;1.65;;;1.55;;
32138;SDS011;18644;48.700;9.210;2023-02-01T04:49:46;1.63;;;1.52;;
32138;SDS011;18644;48.700;9.210;2023-02-01T04:52:12;2.55;;;1.90;;
32138;SDS011;18644;48.700;9.210;2023-02-01T04:54:39;1.90;;;1.70;;
32138;SDS011;18644;48.700;9.210;2023-02-01T04:57:06;1.60;;;1.50;;
32138;SDS011;18644;48.700;9.210;2023-02-01T04:59:33;2.20;;;1.63;;
32138;SDS011;18644;48.700;9.210;2023-02-01T05:02:01;1.75;;;1.65;;
32138;SDS011;18644;48.700;9.210;2023-02-01T05:04:28;1.35;;;1.25;;
32138;SDS011;18644;48.700;9.210;2023-02-01T05:06:55;1.83;;;1.60;;
32138;SDS011;18644;48.700;9.210;2023-02-01T05:09:22;1.98;;;1.50;;
32138;SDS011;18644;48.700;9.210;2023-02-01T05:11:48;2.10;;;1.70;;
32138;SDS011;18644;48.700;9.210;2023-02-01T05:14:33;1.92;;;1.55;;
32138;SDS011;18644;48.700;9.210;2023-02-01T05:17:01;1.60;;;1.50;;
32138;SDS011;18644;48.700;9.210;2023-02-01T05:19:28;1.85;;;1.52;;
32138;SDS011;18644;48.700;9.210;2023-02-01T05:21:55;1.40;;;1.30;;
32138;SDS011;18644;48.700;9.210;2023-02-01T05:24:22;1.23;;;1.13;;
32138;SDS011;18644;48.700;9.210;2023-02-01T05:26:49;1.30;;;1.20;;
32138;SDS011;18644;48.700;9.210;2023-02-01T05:29:16;1.92;;;1.40;;
32138;SDS011;18644;48.700;9.210;2023-02-01T05:31:43;1.58;;;1.27;;
32138;SDS011;18644;48.700;9.210;2023-02-01T05:34:13;2.88;;;1.45;;
32138;SDS011;18644;48.700;9.210;2023-02-01T05:36:40;0.95;;;0.95;;
32138;SDS011;18644;48.700;9.210;2023-02-01T05:39:07;2.60;;;1.35;;
32138;SDS011;18644;48.700;9.210;2023-02-01T05:41:35;1.20;;;1.10;;
32138;SDS011;18644;48.700;9.210;2023-02-01T05:44:02;1.63;;;1.10;;
32138;SDS011;18644;48.700;9.210;2023-02-01T05:46:29;1.40;;;1.23;;
32138;SDS011;18644;48.700;9.210;2023-02-01T05:48:57;1.58;;;1.20;;
32138;SDS011;18644;48.700;9.210;2023-02-01T05:51:25;1.23;;;1.10;;
32138;SDS011;18644;48.700;9.210;2023-02-01T05:53:52;1.63;;;1.20;;
32138;SDS011;18644;48.700;9.210;2023-02-01T05:56:19;1.67;;;1.38;;
32138;SDS011;18644;48.700;9.210;2023-02-01T05:58:46;1.50;;;1.40;;
32138;SDS011;18644;48.700;9.210;2023-02-01T06:01:13;2.63;;;1.70;;
32138;SDS011;18644;48.700;9.210;2023-02-01T06:03:40;1.50;;;1.20;;
32138;SDS011;18644;48.700;9.210;2023-02-01T06:06:06;1.52;;;1.20;;
32138;SDS011;18644;48.700;9.210;2023-02-01T06:08:35;1.40;;;1.20;;
32138;SDS011;18644;48.700;9.210;2023-02-01T06:11:05;1.75;;;1.42;;
32138;SDS011;18644;48.700;9.210;2023-02-01T06:13:32;1.20;;;1.10;;
32138;SDS011;18644;48.700;9.210;2023-02-01T06:15:59;1.38;;;0.98;;
32138;SDS011;18644;48.700;9.210;2023-02-01T06:18:27;1.40;;;1.30;;
32138;SDS011;18644;48.700;9.210;2023-02-01T06:20:55;1.88;;;1.38;;
32138;SDS011;18644;48.700;9.210;2023-02-01T06:23:25;4.40;;;2.53;;
32138;SDS011;18644;48.700;9.210;2023-02-01T06:25:57;1.67;;;1.45;;
32138;SDS011;18644;48.700;9.210;2023-02-01T06:28:26;1.45;;;1.30;;
32138;SDS011;18644;48.700;9.210;2023-02-01T06:30:53;3.25;;;1.50;;
32138;SDS011;18644;48.700;9.210;2023-02-01T06:33:20;2.38;;;1.38;;
32138;SDS011;18644;48.700;9.210;2023-02-01T06:35:47;1.33;;;1.23;;
32138;SDS011;18644;48.700;9.210;2023-02-01T06:38:14;1.98;;;1.38;;
32138;SDS011;18644;48.700;9.210;2023-02-01T06:40:41;2.05;;;1.50;;
32138;SDS011;18644;48.700;9.210;2023-02-01T06:43:10;2.58;;;1.58;;
32138;SDS011;18644;48.700;9.210;2023-02-01T06:45:36;2.83;;;1.35;;
32138;SDS011;18644;48.700;9.210;2023-02-01T06:48:03;1.52;;;1.25;;
32138;SDS011;18644;48.700;9.210;2023-02-01T06:50:30;1.95;;;1.48;;
32138;SDS011;18644;48.700;9.210;2023-02-01T06:52:57;3.92;;;1.20;;
32138;SDS011;18644;48.700;9.210;2023-02-01T06:55:24;2.60;;;1.58;;
32138;SDS011;18644;48.700;9.210;2023-02-01T06:57:54;1.67;;;1.42;;
32138;SDS011;18644;48.700;9.210;2023-02-01T07:00:23;1.83;;;1.48;;
32138;SDS011;18644;48.700;9.210;2023-02-01T07:02:50;2.45;;;1.55;;
32138;SDS011;18644;48.700;9.210;2023-02-01T07:05:17;1.90;;;1.33;;
32138;SDS011;18644;48.700;9.210;2023-02-01T07:07:44;2.35;;;1.65;;
32138;SDS011;18644;48.700;9.210;2023-02-01T07:10:11;2.30;;;1.20;;
32138;SDS011;18644;48.700;9.210;2023-02-01T07:12:39;2.08;;;1.60;;
32138;SDS011;18644;48.700;9.210;2023-02-01T07:15:06;2.30;;;1.65;;
32138;SDS011;18644;48.700;9.210;2023-02-01T07:17:35;2.15;;;1.20;;
32138;SDS011;18644;48.700;9.210;2023-02-01T07:20:01;2.17;;;1.27;;
32138;SDS011;18644;48.700;9.210;2023-02-01T07:22:29;1.77;;;1.20;;
32138;SDS011;18644;48.700;9.210;2023-02-01T07:24:56;2.17;;;1.40;;
32138;SDS011;18644;48.700;9.210;2023-02-01T07:27:23;1.40;;;1.30;;
32138;SDS011;18644;48.700;9.210;2023-02-01T07:29:50;1.60;;;1.50;;
32138;SDS011;18644;48.700;9.210;2023-02-01T07:32:17;1.98;;;1.30;;
32138;SDS011;18644;48.700;9.210;2023-02-01T07:34:46;2.83;;;1.80;;
32138;SDS011;18644;48.700;9.210;2023-02-01T07:37:12;4.20;;;1.60;;
32138;SDS011;18644;48.700;9.210;2023-02-01T07:39:39;1.83;;;1.38;;
32138;SDS011;18644;48.700;9.210;2023-02-01T07:42:06;3.88;;;1.63;;
32138;SDS011;18644;48.700;9.210;2023-02-01T07:44:33;2.05;;;1.27;;
32138;SDS011;18644;48.700;9.210;2023-02-01T07:47:00;2.17;;;1.45;;
32138;SDS011;18644;48.700;9.210;2023-02-01T07:49:27;2.53;;;1.45;;
32138;SDS011;18644;48.700;9.210;2023-02-01T07:51:55;1.48;;;1.10;;
32138;SDS011;18644;48.700;9.210;2023-02-01T07:54:22;4.25;;;1.48;;
32138;SDS011;18644;48.700;9.210;2023-02-01T07:56:48;4.05;;;1.48;;
32138;SDS011;18644;48.700;9.210;2023-02-01T07:59:15;2.97;;;1.20;;
32138;SDS011;18644;48.700;9.210;2023-02-01T08:01:42;1.60;;;1.50;;
32138;SDS011;18644;48.700;9.210;2023-02-01T08:04:09;1.55;;;1.45;;
32138;SDS011;18644;48.700;9.210;2023-02-01T08:06:38;1.85;;;1.10;;
32138;SDS011;18644;48.700;9.210;2023-02-01T08:09:07;5.28;;;1.80;;
32138;SDS011;18644;48.700;9.210;2023-02-01T08:11:35;2.25;;;1.13;;
32138;SDS011;18644;48.700;9.210;2023-02-01T08:14:03;1.60;;;1.27;;
32138;SDS011;18644;48.700;9.210;2023-02-01T08:16:31;2.05;;;1.13;;
32138;SDS011;18644;48.700;9.210;2023-02-01T08:19:00;3.58;;;1.55;;
32138;SDS011;18644;48.700;9.210;2023-02-01T08:21:27;2.60;;;1.27;;
32138;SDS011;18644;48.700;9.210;2023-02-01T08:24:01;2.50;;;1.50;;
32138;SDS011;18644;48.700;9.210;2023-02-01T08:26:31;6.40;;;1.60;;
32138;SDS011;18644;48.700;9.210;2023-02-01T08:28:59;1.85;;;1.10;;
32138;SDS011;18644;48.700;9.210;2023-02-01T08:31:29;2.87;;;1.87;;
32138;SDS011;18644;48.700;9.210;2023-02-01T08:33:57;2.85;;;1.38;;
32138;SDS011;18644;48.700;9.210;2023-02-01T08:36:29;2.05;;;1.30;;
32138;SDS011;18644;48.700;9.210;2023-02-01T08:38:57;3.75;;;1.85;;
32138;SDS011;18644;48.700;9.210;2023-02-01T08:41:25;2.65;;;1.40;;
32138;SDS011;18644;48.700;9.210;2023-02-01T08:43:55;3.78;;;1.70;;
32138;SDS011;18644;48.700;9.210;2023-02-01T08:46:23;4.32;;;1.40;;
32138;SDS011;18644;48.700;9.210;2023-02-01T08:48:50;3.53;;;1.73;;
32138;SDS011;18644;48.700;9.210;2023-02-01T08:51:18;3.38;;;1.40;;
32138;SDS011;18644;48.700;9.210;2023-02-01T08:53:47;2.65;;;1.55;;
32138;SDS011;18644;48.700;9.210;2023-02-01T08:56:15;2.15;;;1.40;;
32138;SDS011;18644;48.700;9.210;2023-02-01T08:58:44;3.40;;;1.67;;
32138;SDS011;18644;48.700;9.210;2023-02-01T09:01:13;2.55;;;1.25;;
32138;SDS011;18644;48.700;9.210;2023-02-01T09:03:42;2.40;;;1.33;;
32138;SDS011;18644;48.700;9.210;2023-02-01T09:06:10;2.17;;;1.67;;
32138;SDS011;18644;48.700;9.210;2023-02-01T09:08:40;5.47;;;1.70;;
32138;SDS011;18644;48.700;9.210;2023-02-01T09:11:08;2.15;;;1.50;;
32138;SDS011;18644;48.700;9.210;2023-02-01T09:13:39;3.55;;;1.45;;
32138;SDS011;18644;48.700;9.210;2023-02-01T09:16:06;2.15;;;1.27;;
32138;SDS011;18644;48.700;9.210;2023-02-01T09:18:34;1.50;;;1.13;;
32138;SDS011;18644;48.700;9.210;2023-02-01T09:21:03;2.13;;;1.35;;
32138;SDS011;18644;48.700;9.210;2023-02-01T09:23:31;2.60;;;1.25;;
32138;SDS011;18644;48.700;9.210;2023-02-01T09:25:58;1.58;;;1.13;;
32138;SDS011;18644;48.700;9.210;2023-02-01T09:28:26;5.07;;;1.52;;
32138;SDS011;18644;48.700;9.210;2023-02-01T09:30:54;2.17;;;1.60;;
32138;SDS011;18644;48.700;9.210;2023-02-01T09:33:22;3.13;;;1.58;;
32138;SDS011;18644;48.700;9.210;2023-02-01T09:35:56;1.70;;;1.23;;
32138;SDS011;18644;48.700;9.210;2023-02-01T09:38:23;2.90;;;1.38;;
32138;SDS011;18644;48.700;9.210;2023-02-01T09:40:52;4.55;;;1.95;;
32138;SDS011;18644;48.700;9.210;2023-02-01T09:43:32;2.63;;;1.35;;
32138;SDS011;18644;48.700;9.210;2023-02-01T09:46:13;3.15;;;1.15;;
32138;SDS011;18644;48.700;9.210;2023-02-01T09:48:48;3.40;;;1.50;;
32138;SDS011;18644;48.700;9.210;2023-02-01T09:51:23;2.30;;;1.40;;
32138;SDS011;18644;48.700;9.210;2023-02-01T09:53:57;2.33;;;1.35;;
32138;SDS011;18644;48.700;9.210;2023-02-01T09:56:29;6.72;;;1.73;;
32138;SDS011;18644;48.700;9.210;2023-02-01T09:59:02;2.60;;;1.58;;
32138;SDS011;18644;48.700;9.210;2023-02-01T10:01:39;2.17;;;1.38;;
32138;SDS011;18644;48.700;9.210;2023-02-01T10:04:07;2.70;;;1.15;;
32138;SDS011;18644;48.700;9.210;2023-02-01T10:06:43;4.43;;;1.60;;
32138;SDS011;18644;48.700;9.210;2023-02-01T10:09:25;4.15;;;1.77;;
32138;SDS011;18644;48.700;9.210;2023-02-01T10:15:26;3.10;;;1.48;;
32138;SDS011;18644;48.700;9.210;2023-02-01T10:18:11;4.03;;;1.50;;
32138;SDS011;18644;48.700;9.210;2023-02-01T10:20:56;4.55;;;1.40;;
32138;SDS011;18644;48.700;9.210;2023-02-01T10:23:34;6.72;;;2.05;;
32138;SDS011;18644;48.700;9.210;2023-02-01T10:26:35;3.15;;;1.65;;
32138;SDS011;18644;48.700;9.210;2023-02-01T10:31:39;7.72;;;1.63;;
32138;SDS011;18644;48.700;9.210;2023-02-01T10:34:09;3.20;;;1.58;;
32138;SDS011;18644;48.700;9.210;2023-02-01T10:36:47;2.95;;;1.40;;
32138;SDS011;18644;48.700;9.210;2023-02-01T10:39:21;4.18;;;1.42;;
32138;SDS011;18644;48.700;9.210;2023-02-01T10:41:49;1.98;;;1.40;;
32138;SDS011;18644;48.700;9.210;2023-02-01T10:44:16;3.03;;;1.52;;
32138;SDS011;18644;48.700;9.210;2023-02-01T10:46:48;9.15;;;1.73;;
32138;SDS011;18644;48.700;9.210;2023-02-01T10:49:17;3.55;;;1.60;;
32138;SDS011;18644;48.700;9.210;2023-02-01T10:51:51;5.30;;;1.80;;
32138;SDS011;18644;48.700;9.210;2023-02-01T10:54:33;7.50;;;1.63;;
32138;SDS011;18644;48.700;9.210;2023-02-01T10:57:03;6.57;;;2.10;;
32138;SDS011;18644;48.700;9.210;2023-02-01T10:59:34;6.28;;;1.38;;
32138;SDS011;18644;48.700;9.210;2023-02-01T11:02:05;4.35;;;1.80;;
32138;SDS011;18644;48.700;9.210;2023-02-01T11:04:46;3.83;;;1.52;;
32138;SDS011;18644;48.700;9.210;2023-02-01T11:07:15;6.00;;;1.83;;
32138;SDS011;18644;48.700;9.210;2023-02-01T11:09:50;5.28;;;1.80;;
32138;SDS011;18644;48.700;9.210;2023-02-01T11:12:23;8.90;;;2.35;;
32138;SDS011;18644;48.700;9.210;2023-02-01T11:15:03;7.25;;;2.00;;
32138;SDS011;18644;48.700;9.210;2023-02-01T11:17:43;8.35;;;1.73;;
32138;SDS011;18644;48.700;9.210;2023-02-01T11:20:13;7.30;;;1.92;;
32138;SDS011;18644;48.700;9.210;2023-02-01T11:22:45;5.15;;;1.92;;
32138;SDS011;18644;48.700;9.210;2023-02-01T11:25:15;13.73;;;2.13;;
32138;SDS011;18644;48.700;9.210;2023-02-01T11:27:44;6.15;;;2.00;;
32138;SDS011;18644;48.700;9.210;2023-02-01T11:30:14;6.18;;;2.42;;
32138;SDS011;18644;48.700;9.210;2023-02-01T11:32:45;6.65;;;1.63;;
32138;SDS011;18644;48.700;9.210;2023-02-01T11:35:15;9.52;;;2.33;;
32138;SDS011;18644;48.700;9.210;2023-02-01T11:37:48;10.90;;;1.90;;
32138;SDS011;18644;48.700;9.210;2023-02-01T11:40:26;8.38;;;2.47;;
32138;SDS011;18644;48.700;9.210;2023-02-01T11:42:57;6.45;;;1.70;;
32138;SDS011;18644;48.700;9.210;2023-02-01T11:45:26;6.38;;;1.70;;
32138;SDS011;18644;48.700;9.210;2023-02-01T11:47:55;8.15;;;1.55;;
32138;SDS011;18644;48.700;9.210;2023-02-01T11:50:27;4.30;;;2.03;;
32138;SDS011;18644;48.700;9.210;2023-02-01T11:53:25;8.05;;;1.88;;
32138;SDS011;18644;48.700;9.210;2023-02-01T11:56:11;4.25;;;2.05;;
32138;SDS011;18644;48.700;9.210;2023-02-01T11:58:54;3.72;;;1.70;;
32138;SDS011;18644;48.700;9.210;2023-02-01T12:01:55;8.27;;;2.15;;
32138;SDS011;18644;48.700;9.210;2023-02-01T12:05:19;8.25;;;2.40;;
32138;SDS011;18644;48.700;9.210;2023-02-01T12:08:02;9.85;;;2.17;;
32138;SDS011;18644;48.700;9.210;2023-02-01T12:10:51;5.63;;;1.88;;
32138;SDS011;18644;48.700;9.210;2023-02-01T12:13:32;7.82;;;2.10;;
32138;SDS011;18644;48.700;9.210;2023-02-01T12:16:12;10.95;;;2.70;;
32138;SDS011;18644;48.700;9.210;2023-02-01T12:21:55;6.05;;;1.70;;
32138;SDS011;18644;48.700;9.210;2023-02-01T12:24:53;10.55;;;1.98;;
32138;SDS011;18644;48.700;9.210;2023-02-01T12:28:05;3.97;;;1.55;;
32138;SDS011;18644;48.700;9.210;2023-02-01T12:30:55;5.95;;;1.55;;
32138;SDS011;18644;48.700;9.210;2023-02-01T12:33:52;6.95;;;2.00;;
32138;SDS011;18644;48.700;9.210;2023-02-01T12:36:37;5.93;;;1.83;;
32138;SDS011;18644;48.700;9.210;2023-02-01T12:39:16;8.48;;;1.85;;
32138;SDS011;18644;48.700;9.210;2023-02-01T12:41:52;4.88;;;1.75;;
32138;SDS011;18644;48.700;9.210;2023-02-01T12:44:34;6.10;;;2.00;;
32138;SDS011;18644;48.700;9.210;2023-02-01T12:47:13;7.05;;;1.65;;
32138;SDS011;18644;48.700;9.210;2023-02-01T12:49:49;5.90;;;1.67;;
32138;SDS011;18644;48.700;9.210;2023-02-01T12:52:24;4.75;;;1.48;;
32138;SDS011;18644;48.700;9.210;2023-02-01T12:55:00;6.47;;;2.00;;
32138;SDS011;18644;48.700;9.210;2023-02-01T12:57:36;8.85;;;1.90;;
32138;SDS011;18644;48.700;9.210;2023-02-01T13:00:13;4.95;;;1.95;;
32138;SDS011;18644;48.700;9.210;2023-02-01T13:02:51;7.45;;;2.70;;
32138;SDS011;18644;48.700;9.210;2023-02-01T13:05:33;5.28;;;1.48;;
32138;SDS011;18644;48.700;9.210;2023-02-01T13:08:11;6.15;;;2.05;;
32138;SDS011;18644;48.700;9.210;2023-02-01T13:10:46;4.75;;;2.00;;
32138;SDS011;18644;48.700;9.210;2023-02-01T13:13:20;5.70;;;1.70;;
32138;SDS011;18644;48.700;9.210;2023-02-01T13:15:55;6.80;;;1.88;;
32138;SDS011;18644;48.700;9.210;2023-02-01T13:18:39;8.00;;;2.00;;
32138;SDS011;18644;48.700;9.210;2023-02-01T13:21:13;8.82;;;1.88;;
32138;SDS011;18644;48.700;9.210;2023-02-01T13:23:45;3.65;;;1.88;;
32138;SDS011;18644;48.700;9.210;2023-02-01T13:26:14;8.60;;;2.63;;
32138;SDS011;18644;48.700;9.210;2023-02-01T13:28:42;4.35;;;1.70;;
32138;SDS011;18644;48.700;9.210;2023-02-01T13:31:20;4.38;;;1.85;;
32138;SDS011;18644;48.700;9.210;2023-02-01T13:37:30;6.13;;;1.92;;
32138;SDS011;18644;48.700;9.210;2023-02-01T13:40:30;4.13;;;1.90;;
32138;SDS011;18644;48.700;9.210;2023-02-01T13:43:05;8.35;;;2.25;;
32138;SDS011;18644;48.700;9.210;2023-02-01T13:45:41;5.35;;;1.88;;
32138;SDS011;18644;48.700;9.210;2023-02-01T13:48:17;4.93;;;1.77;;
32138;SDS011;18644;48.700;9.210;2023-02-01T13:50:51;7.82;;;2.03;;
32138;SDS011;18644;48.700;9.210;2023-02-01T13:53:23;5.78;;;2.13;;
32138;SDS011;18644;48.700;9.210;2023-02-01T13:55:56;3.78;;;1.67;;
32138;SDS011;18644;48.700;9.210;2023-02-01T13:58:30;5.03;;;1.52;;
32138;SDS011;18644;48.700;9.210;2023-02-01T14:07:18;6.47;;;1.50;;
32138;SDS011;18644;48.700;9.210;2023-02-01T14:09:47;6.50;;;1.95;;
32138;SDS011;18644;48.700;9.210;2023-02-01T14:15:25;4.43;;;1.58;;
32138;SDS011;18644;48.700;9.210;2023-02-01T14:17:53;6.05;;;2.60;;
32138;SDS011;18644;48.700;9.210;2023-02-01T14:23:24;3.17;;;1.70;;
32138;SDS011;18644;48.700;9.210;2023-02-01T14:26:09;9.57;;;2.15;;
32138;SDS011;18644;48.700;9.210;2023-02-01T14:28:43;3.83;;;1.45;;
32138;SDS011;18644;48.700;9.210;2023-02-01T14:34:09;5.10;;;1.70;;
32138;SDS011;18644;48.700;9.210;2023-02-01T14:36:45;6.03;;;1.80;;
32138;SDS011;18644;48.700;9.210;2023-02-01T14:39:22;7.00;;;2.00;;
32138;SDS011;18644;48.700;9.210;2023-02-01T14:42:00;7.30;;;1.90;;
32138;SDS011;18644;48.700;9.210;2023-02-01T14:47:08;7.88;;;2.20;;
32138;SDS011;18644;48.700;9.210;2023-02-01T14:50:03;8.10;;;1.80;;
32138;SDS011;18644;48.700;9.210;2023-02-01T14:52:51;3.10;;;1.35;;
32138;SDS011;18644;48.700;9.210;2023-02-01T14:55:35;6.88;;;2.22;;
32138;SDS011;18644;48.700;9.210;2023-02-01T14:58:10;5.95;;;1.60;;
32138;SDS011;18644;48.700;9.210;2023-02-01T15:00:47;7.15;;;1.67;;
32138;SDS011;18644;48.700;9.210;2023-02-01T15:03:23;6.93;;;1.75;;
32138;SDS011;18644;48.700;9.210;2023-02-01T15:06:03;6.95;;;1.75;;
32138;SDS011;18644;48.700;9.210;2023-02-01T15:08:32;5.00;;;1.98;;
32138;SDS011;18644;48.700;9.210;2023-02-01T15:11:07;4.65;;;1.90;;
32138;SDS011;18644;48.700;9.210;2023-02-01T15:13:40;6.57;;;2.05;;
32138;SDS011;18644;48.700;9.210;2023-02-01T15:16:15;4.50;;;1.70;;
32138;SDS011;18644;48.700;9.210;2023-02-01T15:18:43;5.95;;;1.70;;
32138;SDS011;18644;48.700;9.210;2023-02-01T15:21:15;9.07;;;2.25;;
32138;SDS011;18644;48.700;9.210;2023-02-01T15:23:44;5.90;;;1.90;;
32138;SDS011;18644;48.700;9.210;2023-02-01T15:26:25;4.78;;;1.73;;
32138;SDS011;18644;48.700;9.210;2023-02-01T15:28:53;9.98;;;2.72;;
32138;SDS011;18644;48.700;9.210;2023-02-01T15:31:32;6.18;;;2.20;;
32138;SDS011;18644;48.700;9.210;2023-02-01T15:34:01;6.75;;;1.90;;
32138;SDS011;18644;48.700;9.210;2023-02-01T15:36:28;5.50;;;1.88;;
32138;SDS011;18644;48.700;9.210;2023-02-01T15:39:16;5.68;;;2.10;;
32138;SDS011;18644;48.700;9.210;2023-02-01T15:41:49;4.93;;;1.73;;
32138;SDS011;18644;48.700;9.210;2023-02-01T15:44:21;6.20;;;1.98;;
32138;SDS011;18644;48.700;9.210;2023-02-01T15:46:57;6.57;;;1.67;;
32138;SDS011;18644;48.700;9.210;2023-02-01T15:49:27;6.45;;;2.30;;
32138;SDS011;18644;48.700;9.210;2023-02-01T15:51:56;6.20;;;2.70;;
32138;SDS011;18644;48.700;9.210;2023-02-01T15:54:26;6.65;;;2.00;;